Terminal Aerodrome Forecast
Issued by NWS

Current Version | Previous Version | Text Only | Print | Product List | Glossary On
Versions: 1 2 3 4 5 6 7 8 9 10 11 12 13
000
FTUS44 KTSA 211100
TAFRVS
TAF
KRVS 211126Z 2112/2212 00000KT 3SM BR SCT040
      TEMPO 2112/2114 1SM BR
     FM211500 14004KT P6SM SCT040
     FM220000 00000KT P6SM SCT040
     FM220800 00000KT 4SM BR SCT040=

USA.gov is the U.S. government's official web portal to all federal, state and local government web resources and services.